sensor_id;sensor_type;location;lat;lon;timestamp;temperature;humidity
47090;DHT22;32840;52.516;13.294;2022-08-19T00:01:45;24.70;99.90
47090;DHT22;32840;52.516;13.294;2022-08-19T00:04:32;24.70;99.90
47090;DHT22;32840;52.516;13.294;2022-08-19T00:07:19;24.60;99.90
47090;DHT22;32840;52.516;13.294;2022-08-19T00:10:13;24.70;99.90
47090;DHT22;32840;52.516;13.294;2022-08-19T00:12:58;24.60;99.90
47090;DHT22;32840;52.516;13.294;2022-08-19T00:15:43;24.60;99.90
47090;DHT22;32840;52.516;13.294;2022-08-19T00:18:29;24.60;99.90
47090;DHT22;32840;52.516;13.294;2022-08-19T00:21:14;24.50;99.90
47090;DHT22;32840;52.516;13.294;2022-08-19T00:23:59;24.60;99.90
47090;DHT22;32840;52.516;13.294;2022-08-19T00:26:45;24.60;99.90
47090;DHT22;32840;52.516;13.294;2022-08-19T00:29:29;24.60;99.90
47090;DHT22;32840;52.516;13.294;2022-08-19T00:32:15;24.60;99.90
47090;DHT22;32840;52.516;13.294;2022-08-19T00:35:00;24.60;99.90
47090;DHT22;32840;52.516;13.294;2022-08-19T00:37:47;24.60;99.90
47090;DHT22;32840;52.516;13.294;2022-08-19T00:40:33;24.60;99.90
47090;DHT22;32840;52.516;13.294;2022-08-19T00:43:21;24.60;99.90
47090;DHT22;32840;52.516;13.294;2022-08-19T00:46:06;24.60;99.90
47090;DHT22;32840;52.516;13.294;2022-08-19T00:48:51;24.50;99.90
47090;DHT22;32840;52.516;13.294;2022-08-19T00:51:36;24.50;99.90
47090;DHT22;32840;52.516;13.294;2022-08-19T00:54:22;24.50;99.90
47090;DHT22;32840;52.516;13.294;2022-08-19T00:57:10;24.40;99.90
47090;DHT22;32840;52.516;13.294;2022-08-19T00:59:58;24.50;99.90
47090;DHT22;32840;52.516;13.294;2022-08-19T01:02:44;24.50;99.90
47090;DHT22;32840;52.516;13.294;2022-08-19T01:05:29;24.40;99.90
47090;DHT22;32840;52.516;13.294;2022-08-19T01:08:15;24.40;99.90
47090;DHT22;32840;52.516;13.294;2022-08-19T01:11:01;24.40;99.90
47090;DHT22;32840;52.516;13.294;2022-08-19T01:13:46;24.40;99.90
47090;DHT22;32840;52.516;13.294;2022-08-19T01:16:32;24.40;99.90
47090;DHT22;32840;52.516;13.294;2022-08-19T01:19:27;24.40;99.90
47090;DHT22;32840;52.516;13.294;2022-08-19T01:22:36;24.40;99.90
47090;DHT22;32840;52.516;13.294;2022-08-19T01:25:29;24.40;99.90
47090;DHT22;32840;52.516;13.294;2022-08-19T01:28:21;24.40;99.90
47090;DHT22;32840;52.516;13.294;2022-08-19T01:31:12;24.30;99.90
47090;DHT22;32840;52.516;13.294;2022-08-19T01:33:57;24.30;99.90
47090;DHT22;32840;52.516;13.294;2022-08-19T01:36:44;24.30;99.90
47090;DHT22;32840;52.516;13.294;2022-08-19T01:39:33;24.20;99.90
47090;DHT22;32840;52.516;13.294;2022-08-19T01:42:18;24.10;99.90
47090;DHT22;32840;52.516;13.294;2022-08-19T01:45:05;24.10;99.90
47090;DHT22;32840;52.516;13.294;2022-08-19T01:47:50;24.10;99.90
47090;DHT22;32840;52.516;13.294;2022-08-19T01:50:35;24.10;99.90
47090;DHT22;32840;52.516;13.294;2022-08-19T01:53:20;24.10;99.90
47090;DHT22;32840;52.516;13.294;2022-08-19T01:56:06;24.00;99.90
47090;DHT22;32840;52.516;13.294;2022-08-19T01:58:55;24.00;99.90
47090;DHT22;32840;52.516;13.294;2022-08-19T02:01:42;23.80;99.90
47090;DHT22;32840;52.516;13.294;2022-08-19T02:04:27;23.70;99.90
47090;DHT22;32840;52.516;13.294;2022-08-19T02:07:12;23.70;99.90
47090;DHT22;32840;52.516;13.294;2022-08-19T02:09:57;23.70;99.90
47090;DHT22;32840;52.516;13.294;2022-08-19T02:12:42;23.70;99.90
47090;DHT22;32840;52.516;13.294;2022-08-19T02:15:27;23.60;99.90
47090;DHT22;32840;52.516;13.294;2022-08-19T02:18:13;23.60;99.90
47090;DHT22;32840;52.516;13.294;2022-08-19T02:20:58;23.70;99.90
47090;DHT22;32840;52.516;13.294;2022-08-19T02:23:43;23.60;99.90
47090;DHT22;32840;52.516;13.294;2022-08-19T02:26:28;23.50;99.90
47090;DHT22;32840;52.516;13.294;2022-08-19T02:29:13;23.30;99.90
47090;DHT22;32840;52.516;13.294;2022-08-19T02:31:58;23.20;99.90
47090;DHT22;32840;52.516;13.294;2022-08-19T02:34:42;23.20;99.90
47090;DHT22;32840;52.516;13.294;2022-08-19T02:37:27;23.10;99.90
47090;DHT22;32840;52.516;13.294;2022-08-19T02:40:32;23.10;99.90
47090;DHT22;32840;52.516;13.294;2022-08-19T02:43:20;23.10;99.90
47090;DHT22;32840;52.516;13.294;2022-08-19T02:49:01;23.30;99.90
47090;DHT22;32840;52.516;13.294;2022-08-19T02:51:47;23.30;99.90
47090;DHT22;32840;52.516;13.294;2022-08-19T02:54:32;23.30;99.90
47090;DHT22;32840;52.516;13.294;2022-08-19T02:57:16;23.30;99.90
47090;DHT22;32840;52.516;13.294;2022-08-19T03:00:05;23.30;99.90
47090;DHT22;32840;52.516;13.294;2022-08-19T03:02:51;23.30;99.90
47090;DHT22;32840;52.516;13.294;2022-08-19T03:05:36;23.30;99.90
47090;DHT22;32840;52.516;13.294;2022-08-19T03:08:21;23.30;99.90
47090;DHT22;32840;52.516;13.294;2022-08-19T03:11:11;23.30;99.90
47090;DHT22;32840;52.516;13.294;2022-08-19T03:13:57;23.30;99.90
47090;DHT22;32840;52.516;13.294;2022-08-19T03:16:45;23.30;99.90
47090;DHT22;32840;52.516;13.294;2022-08-19T03:19:31;23.30;99.90
47090;DHT22;32840;52.516;13.294;2022-08-19T03:22:16;23.20;99.90
47090;DHT22;32840;52.516;13.294;2022-08-19T03:25:01;23.20;99.90
47090;DHT22;32840;52.516;13.294;2022-08-19T03:27:46;23.20;99.90
47090;DHT22;32840;52.516;13.294;2022-08-19T03:30:33;23.10;99.90
47090;DHT22;32840;52.516;13.294;2022-08-19T03:33:18;23.10;99.90
47090;DHT22;32840;52.516;13.294;2022-08-19T03:36:06;23.10;99.90
47090;DHT22;32840;52.516;13.294;2022-08-19T03:38:55;23.10;99.90
47090;DHT22;32840;52.516;13.294;2022-08-19T03:41:42;23.10;99.90
47090;DHT22;32840;52.516;13.294;2022-08-19T03:44:28;23.10;99.90
47090;DHT22;32840;52.516;13.294;2022-08-19T03:47:13;23.00;99.90
47090;DHT22;32840;52.516;13.294;2022-08-19T03:50:00;23.10;99.90
47090;DHT22;32840;52.516;13.294;2022-08-19T03:52:49;23.10;99.90
47090;DHT22;32840;52.516;13.294;2022-08-19T03:55:40;23.00;99.90
47090;DHT22;32840;52.516;13.294;2022-08-19T03:58:28;23.10;99.90
47090;DHT22;32840;52.516;13.294;2022-08-19T04:01:16;23.00;99.90
47090;DHT22;32840;52.516;13.294;2022-08-19T04:04:02;23.00;99.90
47090;DHT22;32840;52.516;13.294;2022-08-19T04:06:48;23.00;99.90
47090;DHT22;32840;52.516;13.294;2022-08-19T04:09:34;23.00;99.90
47090;DHT22;32840;52.516;13.294;2022-08-19T04:12:21;23.00;99.90
47090;DHT22;32840;52.516;13.294;2022-08-19T04:15:06;23.00;99.90
47090;DHT22;32840;52.516;13.294;2022-08-19T04:17:51;23.00;99.90
47090;DHT22;32840;52.516;13.294;2022-08-19T04:20:45;23.00;99.90
47090;DHT22;32840;52.516;13.294;2022-08-19T04:23:31;22.90;99.90
47090;DHT22;32840;52.516;13.294;2022-08-19T04:26:19;22.90;99.90
47090;DHT22;32840;52.516;13.294;2022-08-19T04:29:11;23.00;99.90
47090;DHT22;32840;52.516;13.294;2022-08-19T04:31:56;23.00;99.90
47090;DHT22;32840;52.516;13.294;2022-08-19T04:34:43;23.00;99.90
47090;DHT22;32840;52.516;13.294;2022-08-19T04:37:28;23.00;99.90
47090;DHT22;32840;52.516;13.294;2022-08-19T04:40:17;23.00;99.90
47090;DHT22;32840;52.516;13.294;2022-08-19T04:43:20;23.00;99.90
47090;DHT22;32840;52.516;13.294;2022-08-19T04:46:11;23.00;99.90
47090;DHT22;32840;52.516;13.294;2022-08-19T04:48:56;23.00;99.90
47090;DHT22;32840;52.516;13.294;2022-08-19T04:51:43;23.00;99.90
47090;DHT22;32840;52.516;13.294;2022-08-19T04:54:28;23.00;99.90
47090;DHT22;32840;52.516;13.294;2022-08-19T04:57:13;23.00;99.90
47090;DHT22;32840;52.516;13.294;2022-08-19T04:59:58;23.00;99.90
47090;DHT22;32840;52.516;13.294;2022-08-19T05:02:43;23.00;99.90
47090;DHT22;32840;52.516;13.294;2022-08-19T05:05:28;23.00;99.90
47090;DHT22;32840;52.516;13.294;2022-08-19T05:08:14;23.00;99.90
47090;DHT22;32840;52.516;13.294;2022-08-19T05:11:08;23.00;99.90
47090;DHT22;32840;52.516;13.294;2022-08-19T05:13:53;23.00;99.90
47090;DHT22;32840;52.516;13.294;2022-08-19T05:16:39;23.00;99.90
47090;DHT22;32840;52.516;13.294;2022-08-19T05:19:24;23.00;99.90
47090;DHT22;32840;52.516;13.294;2022-08-19T05:22:27;23.00;99.90
47090;DHT22;32840;52.516;13.294;2022-08-19T05:25:20;22.90;99.90
47090;DHT22;32840;52.516;13.294;2022-08-19T05:28:05;22.90;99.90
47090;DHT22;32840;52.516;13.294;2022-08-19T05:30:50;22.90;99.90
47090;DHT22;32840;52.516;13.294;2022-08-19T05:33:35;23.00;99.90
47090;DHT22;32840;52.516;13.294;2022-08-19T05:36:20;23.00;99.90
47090;DHT22;32840;52.516;13.294;2022-08-19T05:39:06;22.90;99.90
47090;DHT22;32840;52.516;13.294;2022-08-19T05:41:57;23.00;99.90
47090;DHT22;32840;52.516;13.294;2022-08-19T05:44:43;23.10;99.90
47090;DHT22;32840;52.516;13.294;2022-08-19T05:47:28;23.20;99.90
47090;DHT22;32840;52.516;13.294;2022-08-19T05:50:13;23.30;99.90
47090;DHT22;32840;52.516;13.294;2022-08-19T05:52:58;23.40;99.90
47090;DHT22;32840;52.516;13.294;2022-08-19T05:55:43;23.50;99.90
47090;DHT22;32840;52.516;13.294;2022-08-19T05:58:28;23.50;99.90
47090;DHT22;32840;52.516;13.294;2022-08-19T06:01:15;23.50;99.90
47090;DHT22;32840;52.516;13.294;2022-08-19T06:04:00;23.60;99.90
47090;DHT22;32840;52.516;13.294;2022-08-19T06:06:47;23.60;99.90
47090;DHT22;32840;52.516;13.294;2022-08-19T06:09:32;23.70;99.90
47090;DHT22;32840;52.516;13.294;2022-08-19T06:12:17;23.60;99.90
47090;DHT22;32840;52.516;13.294;2022-08-19T06:15:06;23.70;99.90
47090;DHT22;32840;52.516;13.294;2022-08-19T06:17:51;23.70;99.90
47090;DHT22;32840;52.516;13.294;2022-08-19T06:20:36;23.80;99.90
47090;DHT22;32840;52.516;13.294;2022-08-19T06:23:21;23.80;99.90
47090;DHT22;32840;52.516;13.294;2022-08-19T06:26:06;23.80;99.90
47090;DHT22;32840;52.516;13.294;2022-08-19T06:28:52;23.80;99.90
47090;DHT22;32840;52.516;13.294;2022-08-19T06:31:42;23.80;99.90
47090;DHT22;32840;52.516;13.294;2022-08-19T06:34:29;23.90;99.90
47090;DHT22;32840;52.516;13.294;2022-08-19T06:37:15;23.90;99.90
47090;DHT22;32840;52.516;13.294;2022-08-19T06:40:00;24.00;99.90
47090;DHT22;32840;52.516;13.294;2022-08-19T06:42:45;24.00;99.90
47090;DHT22;32840;52.516;13.294;2022-08-19T06:45:32;24.00;99.90
47090;DHT22;32840;52.516;13.294;2022-08-19T06:48:17;23.90;99.90
47090;DHT22;32840;52.516;13.294;2022-08-19T06:51:03;23.90;99.90
47090;DHT22;32840;52.516;13.294;2022-08-19T06:53:52;23.90;99.90
47090;DHT22;32840;52.516;13.294;2022-08-19T06:56:38;24.00;99.90
47090;DHT22;32840;52.516;13.294;2022-08-19T06:59:24;24.00;99.90
47090;DHT22;32840;52.516;13.294;2022-08-19T07:02:11;24.00;99.90
47090;DHT22;32840;52.516;13.294;2022-08-19T07:04:56;24.00;99.90
47090;DHT22;32840;52.516;13.294;2022-08-19T07:07:46;23.90;99.90
47090;DHT22;32840;52.516;13.294;2022-08-19T07:10:31;23.90;99.90
47090;DHT22;32840;52.516;13.294;2022-08-19T07:13:17;24.00;99.90
47090;DHT22;32840;52.516;13.294;2022-08-19T07:16:04;24.00;99.90
47090;DHT22;32840;52.516;13.294;2022-08-19T07:18:50;24.00;99.90
47090;DHT22;32840;52.516;13.294;2022-08-19T07:21:35;24.00;99.90
47090;DHT22;32840;52.516;13.294;2022-08-19T07:24:23;24.00;99.90
47090;DHT22;32840;52.516;13.294;2022-08-19T07:27:08;24.00;99.90
47090;DHT22;32840;52.516;13.294;2022-08-19T07:29:54;24.10;99.90
47090;DHT22;32840;52.516;13.294;2022-08-19T07:32:39;24.10;99.90
47090;DHT22;32840;52.516;13.294;2022-08-19T07:35:25;24.10;99.90
47090;DHT22;32840;52.516;13.294;2022-08-19T07:38:11;24.20;99.90
47090;DHT22;32840;52.516;13.294;2022-08-19T07:40:55;24.20;99.90
47090;DHT22;32840;52.516;13.294;2022-08-19T07:43:41;24.20;99.90
47090;DHT22;32840;52.516;13.294;2022-08-19T07:46:25;24.20;99.90
47090;DHT22;32840;52.516;13.294;2022-08-19T07:49:15;24.30;99.90
47090;DHT22;32840;52.516;13.294;2022-08-19T07:52:08;24.30;99.90
47090;DHT22;32840;52.516;13.294;2022-08-19T07:54:53;24.40;99.90
47090;DHT22;32840;52.516;13.294;2022-08-19T07:57:38;24.30;99.90
47090;DHT22;32840;52.516;13.294;2022-08-19T08:00:23;24.40;99.90
47090;DHT22;32840;52.516;13.294;2022-08-19T08:03:09;24.40;99.90
47090;DHT22;32840;52.516;13.294;2022-08-19T08:05:54;24.40;99.90
47090;DHT22;32840;52.516;13.294;2022-08-19T08:08:57;24.40;99.90
47090;DHT22;32840;52.516;13.294;2022-08-19T08:12:17;24.40;99.90
47090;DHT22;32840;52.516;13.294;2022-08-19T08:15:09;24.40;99.90
47090;DHT22;32840;52.516;13.294;2022-08-19T08:17:54;24.40;99.90
47090;DHT22;32840;52.516;13.294;2022-08-19T08:20:39;24.40;99.90
47090;DHT22;32840;52.516;13.294;2022-08-19T08:23:24;24.40;99.90
47090;DHT22;32840;52.516;13.294;2022-08-19T08:26:09;24.50;99.90
47090;DHT22;32840;52.516;13.294;2022-08-19T08:28:55;24.50;99.90
47090;DHT22;32840;52.516;13.294;2022-08-19T08:31:42;24.50;99.90
47090;DHT22;32840;52.516;13.294;2022-08-19T08:34:27;24.50;99.90
47090;DHT22;32840;52.516;13.294;2022-08-19T08:37:12;24.50;99.90
47090;DHT22;32840;52.516;13.294;2022-08-19T08:39:57;24.50;99.90
47090;DHT22;32840;52.516;13.294;2022-08-19T08:42:51;24.40;99.90
47090;DHT22;32840;52.516;13.294;2022-08-19T08:45:52;24.50;99.90
47090;DHT22;32840;52.516;13.294;2022-08-19T08:48:45;24.40;99.90
47090;DHT22;32840;52.516;13.294;2022-08-19T08:51:44;24.40;99.90
47090;DHT22;32840;52.516;13.294;2022-08-19T08:54:41;24.40;99.90
47090;DHT22;32840;52.516;13.294;2022-08-19T09:00:29;24.40;99.90
47090;DHT22;32840;52.516;13.294;2022-08-19T09:03:25;24.40;99.90
47090;DHT22;32840;52.516;13.294;2022-08-19T09:06:30;24.40;99.90
47090;DHT22;32840;52.516;13.294;2022-08-19T09:09:24;24.40;99.90
47090;DHT22;32840;52.516;13.294;2022-08-19T09:12:38;24.40;99.90
47090;DHT22;32840;52.516;13.294;2022-08-19T09:15:36;24.30;99.90
47090;DHT22;32840;52.516;13.294;2022-08-19T09:18:23;24.30;99.90
47090;DHT22;32840;52.516;13.294;2022-08-19T09:21:08;24.30;99.90
47090;DHT22;32840;52.516;13.294;2022-08-19T09:23:53;24.40;99.90
47090;DHT22;32840;52.516;13.294;2022-08-19T09:26:38;24.40;99.90
47090;DHT22;32840;52.516;13.294;2022-08-19T09:29:23;24.60;99.90
47090;DHT22;32840;52.516;13.294;2022-08-19T09:32:09;24.60;99.90
47090;DHT22;32840;52.516;13.294;2022-08-19T09:34:53;24.80;99.90
47090;DHT22;32840;52.516;13.294;2022-08-19T09:37:39;24.80;99.90
47090;DHT22;32840;52.516;13.294;2022-08-19T09:40:24;25.00;99.90
47090;DHT22;32840;52.516;13.294;2022-08-19T09:43:10;25.10;99.90
47090;DHT22;32840;52.516;13.294;2022-08-19T09:45:55;25.10;99.90
47090;DHT22;32840;52.516;13.294;2022-08-19T09:48:40;25.20;99.90
47090;DHT22;32840;52.516;13.294;2022-08-19T09:51:27;25.30;99.90
47090;DHT22;32840;52.516;13.294;2022-08-19T09:54:14;25.30;99.90
47090;DHT22;32840;52.516;13.294;2022-08-19T09:56:59;25.30;99.90
47090;DHT22;32840;52.516;13.294;2022-08-19T09:59:44;25.30;99.90
47090;DHT22;32840;52.516;13.294;2022-08-19T10:02:29;25.20;99.90
47090;DHT22;32840;52.516;13.294;2022-08-19T10:05:14;25.20;99.90
47090;DHT22;32840;52.516;13.294;2022-08-19T10:08:20;25.20;99.90
47090;DHT22;32840;52.516;13.294;2022-08-19T10:11:05;25.20;99.90
47090;DHT22;32840;52.516;13.294;2022-08-19T10:13:50;25.10;99.90
47090;DHT22;32840;52.516;13.294;2022-08-19T10:16:36;25.20;99.90
47090;DHT22;32840;52.516;13.294;2022-08-19T10:19:21;25.20;99.90
47090;DHT22;32840;52.516;13.294;2022-08-19T10:22:07;25.40;99.90
47090;DHT22;32840;52.516;13.294;2022-08-19T10:24:52;25.40;99.90
47090;DHT22;32840;52.516;13.294;2022-08-19T10:27:36;25.50;99.90
47090;DHT22;32840;52.516;13.294;2022-08-19T10:30:22;25.60;99.90
47090;DHT22;32840;52.516;13.294;2022-08-19T10:33:07;25.70;99.90
47090;DHT22;32840;52.516;13.294;2022-08-19T10:36:00;25.80;99.90
47090;DHT22;32840;52.516;13.294;2022-08-19T10:38:46;25.80;99.90
47090;DHT22;32840;52.516;13.294;2022-08-19T10:41:34;25.90;99.90
47090;DHT22;32840;52.516;13.294;2022-08-19T10:44:19;25.90;99.90
47090;DHT22;32840;52.516;13.294;2022-08-19T10:47:06;25.80;99.90
47090;DHT22;32840;52.516;13.294;2022-08-19T10:49:52;25.80;99.90
47090;DHT22;32840;52.516;13.294;2022-08-19T10:52:55;25.70;99.90
47090;DHT22;32840;52.516;13.294;2022-08-19T10:55:40;25.60;99.90
47090;DHT22;32840;52.516;13.294;2022-08-19T10:58:44;25.50;99.90
47090;DHT22;32840;52.516;13.294;2022-08-19T11:01:30;25.40;99.90
47090;DHT22;32840;52.516;13.294;2022-08-19T11:04:16;25.30;99.90
47090;DHT22;32840;52.516;13.294;2022-08-19T11:07:02;25.30;99.90
47090;DHT22;32840;52.516;13.294;2022-08-19T11:09:48;25.20;99.90
47090;DHT22;32840;52.516;13.294;2022-08-19T11:12:33;25.20;99.90
47090;DHT22;32840;52.516;13.294;2022-08-19T11:15:18;25.20;99.90
47090;DHT22;32840;52.516;13.294;2022-08-19T11:18:03;25.20;99.90
47090;DHT22;32840;52.516;13.294;2022-08-19T11:20:47;25.20;99.90
47090;DHT22;32840;52.516;13.294;2022-08-19T11:23:33;25.20;99.90
47090;DHT22;32840;52.516;13.294;2022-08-19T11:26:19;25.20;99.90
47090;DHT22;32840;52.516;13.294;2022-08-19T11:29:06;25.30;99.90
47090;DHT22;32840;52.516;13.294;2022-08-19T11:31:55;25.30;99.90
47090;DHT22;32840;52.516;13.294;2022-08-19T11:34:40;25.30;99.90
47090;DHT22;32840;52.516;13.294;2022-08-19T11:37:25;25.20;99.90
47090;DHT22;32840;52.516;13.294;2022-08-19T11:40:10;25.30;99.90
47090;DHT22;32840;52.516;13.294;2022-08-19T11:42:55;25.30;99.90
47090;DHT22;32840;52.516;13.294;2022-08-19T11:45:41;25.20;99.90
47090;DHT22;32840;52.516;13.294;2022-08-19T11:48:25;25.20;99.90
47090;DHT22;32840;52.516;13.294;2022-08-19T11:51:13;25.10;99.90
47090;DHT22;32840;52.516;13.294;2022-08-19T11:53:59;25.10;99.90
47090;DHT22;32840;52.516;13.294;2022-08-19T11:56:44;25.10;99.90
47090;DHT22;32840;52.516;13.294;2022-08-19T11:59:30;25.10;99.90
47090;DHT22;32840;52.516;13.294;2022-08-19T12:02:15;25.10;99.90
47090;DHT22;32840;52.516;13.294;2022-08-19T12:05:00;25.20;99.90
47090;DHT22;32840;52.516;13.294;2022-08-19T12:07:47;25.30;99.90
47090;DHT22;32840;52.516;13.294;2022-08-19T12:10:32;25.30;99.90
47090;DHT22;32840;52.516;13.294;2022-08-19T12:13:17;25.40;99.90
47090;DHT22;32840;52.516;13.294;2022-08-19T12:16:11;25.40;99.90
47090;DHT22;32840;52.516;13.294;2022-08-19T12:18:57;25.40;99.90
47090;DHT22;32840;52.516;13.294;2022-08-19T12:21:43;25.40;99.90
47090;DHT22;32840;52.516;13.294;2022-08-19T12:24:30;25.40;99.90
47090;DHT22;32840;52.516;13.294;2022-08-19T12:27:17;25.40;99.90
47090;DHT22;32840;52.516;13.294;2022-08-19T12:30:03;25.40;99.90
47090;DHT22;32840;52.516;13.294;2022-08-19T12:32:48;25.50;99.90
47090;DHT22;32840;52.516;13.294;2022-08-19T12:35:33;25.40;99.90
47090;DHT22;32840;52.516;13.294;2022-08-19T12:38:18;25.30;99.90
47090;DHT22;32840;52.516;13.294;2022-08-19T12:41:04;25.30;99.90
47090;DHT22;32840;52.516;13.294;2022-08-19T12:43:51;25.30;99.90
47090;DHT22;32840;52.516;13.294;2022-08-19T12:46:37;25.30;99.90
47090;DHT22;32840;52.516;13.294;2022-08-19T12:49:22;25.40;99.90
47090;DHT22;32840;52.516;13.294;2022-08-19T12:52:08;25.50;99.90
47090;DHT22;32840;52.516;13.294;2022-08-19T12:54:55;25.60;99.90
47090;DHT22;32840;52.516;13.294;2022-08-19T12:57:40;25.60;99.90
47090;DHT22;32840;52.516;13.294;2022-08-19T13:00:25;25.60;99.90
47090;DHT22;32840;52.516;13.294;2022-08-19T13:03:09;25.60;99.90
47090;DHT22;32840;52.516;13.294;2022-08-19T13:05:55;25.70;99.90
47090;DHT22;32840;52.516;13.294;2022-08-19T13:08:40;25.80;99.90
47090;DHT22;32840;52.516;13.294;2022-08-19T13:11:25;25.80;99.90
47090;DHT22;32840;52.516;13.294;2022-08-19T13:14:10;25.70;99.90
47090;DHT22;32840;52.516;13.294;2022-08-19T13:16:55;25.70;99.90
47090;DHT22;32840;52.516;13.294;2022-08-19T13:19:41;25.80;99.90
47090;DHT22;32840;52.516;13.294;2022-08-19T13:22:26;25.70;99.90
47090;DHT22;32840;52.516;13.294;2022-08-19T13:25:12;25.70;99.90
47090;DHT22;32840;52.516;13.294;2022-08-19T13:27:57;25.70;99.90
47090;DHT22;32840;52.516;13.294;2022-08-19T13:30:42;25.80;99.90
47090;DHT22;32840;52.516;13.294;2022-08-19T13:33:49;25.80;99.90
47090;DHT22;32840;52.516;13.294;2022-08-19T13:36:35;25.90;99.90
47090;DHT22;32840;52.516;13.294;2022-08-19T13:39:20;26.00;99.90
47090;DHT22;32840;52.516;13.294;2022-08-19T13:42:07;26.20;99.90
47090;DHT22;32840;52.516;13.294;2022-08-19T13:44:53;26.30;99.90
47090;DHT22;32840;52.516;13.294;2022-08-19T13:47:38;26.30;99.90
47090;DHT22;32840;52.516;13.294;2022-08-19T13:50:30;26.30;99.90
47090;DHT22;32840;52.516;13.294;2022-08-19T13:53:16;26.30;99.90
47090;DHT22;32840;52.516;13.294;2022-08-19T13:56:05;26.20;99.90
47090;DHT22;32840;52.516;13.294;2022-08-19T13:58:50;26.20;99.90
47090;DHT22;32840;52.516;13.294;2022-08-19T14:01:36;26.20;99.90
47090;DHT22;32840;52.516;13.294;2022-08-19T14:04:21;26.20;99.90
47090;DHT22;32840;52.516;13.294;2022-08-19T14:07:06;26.10;99.90
47090;DHT22;32840;52.516;13.294;2022-08-19T14:09:51;26.20;99.90
47090;DHT22;32840;52.516;13.294;2022-08-19T14:12:36;26.10;99.90
47090;DHT22;32840;52.516;13.294;2022-08-19T14:15:22;26.10;99.90
47090;DHT22;32840;52.516;13.294;2022-08-19T14:18:07;26.10;99.90
47090;DHT22;32840;52.516;13.294;2022-08-19T14:20:53;26.10;99.90
47090;DHT22;32840;52.516;13.294;2022-08-19T14:23:38;26.10;99.90
47090;DHT22;32840;52.516;13.294;2022-08-19T14:26:23;26.10;99.90
47090;DHT22;32840;52.516;13.294;2022-08-19T14:29:08;26.10;99.90
47090;DHT22;32840;52.516;13.294;2022-08-19T14:31:53;26.10;99.90
47090;DHT22;32840;52.516;13.294;2022-08-19T14:34:37;26.10;99.90
47090;DHT22;32840;52.516;13.294;2022-08-19T14:37:22;26.00;99.90
47090;DHT22;32840;52.516;13.294;2022-08-19T14:40:08;25.90;99.90
47090;DHT22;32840;52.516;13.294;2022-08-19T14:42:54;25.90;99.90
47090;DHT22;32840;52.516;13.294;2022-08-19T14:45:43;25.90;99.90
47090;DHT22;32840;52.516;13.294;2022-08-19T14:48:28;25.80;99.90
47090;DHT22;32840;52.516;13.294;2022-08-19T14:51:13;25.80;99.90
47090;DHT22;32840;52.516;13.294;2022-08-19T14:53:59;25.80;99.90
47090;DHT22;32840;52.516;13.294;2022-08-19T14:56:44;25.80;99.90
47090;DHT22;32840;52.516;13.294;2022-08-19T14:59:28;25.80;99.90
47090;DHT22;32840;52.516;13.294;2022-08-19T15:02:13;25.80;99.90
47090;DHT22;32840;52.516;13.294;2022-08-19T15:04:58;25.90;99.90
47090;DHT22;32840;52.516;13.294;2022-08-19T15:07:43;25.90;99.90
47090;DHT22;32840;52.516;13.294;2022-08-19T15:10:28;25.90;99.90
47090;DHT22;32840;52.516;13.294;2022-08-19T15:13:13;25.80;99.90
47090;DHT22;32840;52.516;13.294;2022-08-19T15:15:58;25.80;99.90
47090;DHT22;32840;52.516;13.294;2022-08-19T15:18:43;25.70;99.90
47090;DHT22;32840;52.516;13.294;2022-08-19T15:21:29;25.70;99.90
47090;DHT22;32840;52.516;13.294;2022-08-19T15:24:15;25.60;99.90
47090;DHT22;32840;52.516;13.294;2022-08-19T15:27:01;25.60;99.90
47090;DHT22;32840;52.516;13.294;2022-08-19T15:29:46;25.60;99.90
47090;DHT22;32840;52.516;13.294;2022-08-19T15:32:32;25.50;99.90
47090;DHT22;32840;52.516;13.294;2022-08-19T15:35:17;25.50;99.90
47090;DHT22;32840;52.516;13.294;2022-08-19T15:38:02;25.50;99.90
47090;DHT22;32840;52.516;13.294;2022-08-19T15:40:48;25.50;99.90
47090;DHT22;32840;52.516;13.294;2022-08-19T15:43:41;25.50;99.90
47090;DHT22;32840;52.516;13.294;2022-08-19T15:46:28;25.40;99.90
47090;DHT22;32840;52.516;13.294;2022-08-19T15:49:16;25.30;99.90
47090;DHT22;32840;52.516;13.294;2022-08-19T15:52:01;25.40;99.90
47090;DHT22;32840;52.516;13.294;2022-08-19T15:54:46;25.30;99.90
47090;DHT22;32840;52.516;13.294;2022-08-19T15:57:31;25.30;99.90
47090;DHT22;32840;52.516;13.294;2022-08-19T16:00:34;25.30;99.90
47090;DHT22;32840;52.516;13.294;2022-08-19T16:03:38;25.20;99.90
47090;DHT22;32840;52.516;13.294;2022-08-19T16:09:31;25.10;99.90
47090;DHT22;32840;52.516;13.294;2022-08-19T16:12:16;25.10;99.90
47090;DHT22;32840;52.516;13.294;2022-08-19T16:15:02;25.10;99.90
47090;DHT22;32840;52.516;13.294;2022-08-19T16:17:48;25.00;99.90
47090;DHT22;32840;52.516;13.294;2022-08-19T16:20:33;25.00;99.90
47090;DHT22;32840;52.516;13.294;2022-08-19T16:23:18;25.00;99.90
47090;DHT22;32840;52.516;13.294;2022-08-19T16:26:03;24.90;99.90
47090;DHT22;32840;52.516;13.294;2022-08-19T16:28:48;24.90;99.90
47090;DHT22;32840;52.516;13.294;2022-08-19T16:31:34;24.90;99.90
47090;DHT22;32840;52.516;13.294;2022-08-19T16:34:19;24.90;99.90
47090;DHT22;32840;52.516;13.294;2022-08-19T16:37:05;25.00;99.90
47090;DHT22;32840;52.516;13.294;2022-08-19T16:39:50;25.00;99.90
47090;DHT22;32840;52.516;13.294;2022-08-19T16:42:34;25.00;99.90
47090;DHT22;32840;52.516;13.294;2022-08-19T16:45:19;25.00;99.90
47090;DHT22;32840;52.516;13.294;2022-08-19T16:48:05;25.00;99.90
47090;DHT22;32840;52.516;13.294;2022-08-19T16:50:51;24.90;99.90
47090;DHT22;32840;52.516;13.294;2022-08-19T16:53:38;24.80;99.90
47090;DHT22;32840;52.516;13.294;2022-08-19T16:56:23;24.80;99.90
47090;DHT22;32840;52.516;13.294;2022-08-19T16:59:09;24.80;99.90
47090;DHT22;32840;52.516;13.294;2022-08-19T17:01:54;24.80;99.90
47090;DHT22;32840;52.516;13.294;2022-08-19T17:04:39;24.80;99.90
47090;DHT22;32840;52.516;13.294;2022-08-19T17:07:29;24.70;99.90
47090;DHT22;32840;52.516;13.294;2022-08-19T17:10:13;24.70;99.90
47090;DHT22;32840;52.516;13.294;2022-08-19T17:12:59;24.70;99.90
47090;DHT22;32840;52.516;13.294;2022-08-19T17:15:43;24.70;99.90
47090;DHT22;32840;52.516;13.294;2022-08-19T17:18:28;24.60;99.90
47090;DHT22;32840;52.516;13.294;2022-08-19T17:21:16;24.60;99.90
47090;DHT22;32840;52.516;13.294;2022-08-19T17:24:03;24.60;99.90
47090;DHT22;32840;52.516;13.294;2022-08-19T17:26:48;24.50;99.90